Time;durP1;ratioP1;P1;durP2;ratioP2;P2;SDS_P1;SDS_P2;PMS_P1;PMS_P2;Temp;Humidity;BMP_temperature;BMP_pressure;BME280_temperature;BME280_humidity;BME280_pressure;Samples;Min_cycle;Max_cycle;Signal;HPM_P1;HPM_P2
2023/03/28 00:00:47;;;;;;;11.82;2.65;;;2.10;99.90;;;;;;4983990;28;20516;-59
2023/03/28 00:03:17;;;;;;;8.02;2.13;;;2.00;99.90;;;;;;4983691;28;20092;-60
2023/03/28 00:05:47;;;;;;;11.40;2.60;;;2.00;99.90;;;;;;4984548;28;20738;-60
2023/03/28 00:08:14;;;;;;;11.23;2.85;;;2.00;99.90;;;;;;4982060;28;20077;-60
2023/03/28 00:10:39;;;;;;;9.02;2.88;;;2.20;99.90;;;;;;4983495;28;20038;-60
2023/03/28 00:13:05;;;;;;;9.75;2.33;;;2.20;99.90;;;;;;4982357;28;20512;-60
2023/03/28 00:15:31;;;;;;;9.95;2.72;;;2.10;99.90;;;;;;4983974;28;20042;-60
2023/03/28 00:17:59;;;;;;;9.75;2.40;;;2.00;99.90;;;;;;4983305;28;20463;-60
2023/03/28 00:20:26;;;;;;;9.40;2.35;;;2.10;99.90;;;;;;4982240;28;20065;-60
2023/03/28 00:22:53;;;;;;;9.88;2.08;;;2.20;99.90;;;;;;4983717;28;20478;-60
2023/03/28 00:25:19;;;;;;;6.32;2.50;;;2.10;99.90;;;;;;4983150;28;20053;-60
2023/03/28 00:27:45;;;;;;;10.55;2.42;;;2.00;99.90;;;;;;4982903;28;20653;-60
2023/03/28 00:30:11;;;;;;;11.50;3.05;;;2.00;99.90;;;;;;4982604;28;20089;-60
2023/03/28 00:32:37;;;;;;;10.32;2.67;;;1.90;99.90;;;;;;4983308;28;20125;-60
2023/03/28 00:35:03;;;;;;;11.43;2.95;;;1.90;99.90;;;;;;4982962;28;20053;-59
2023/03/28 00:37:30;;;;;;;7.15;2.25;;;1.90;99.90;;;;;;4982818;28;20599;-61
2023/03/28 00:39:56;;;;;;;12.63;2.67;;;1.80;99.90;;;;;;4983200;28;20040;-60
2023/03/28 00:42:24;;;;;;;9.90;2.45;;;1.80;99.90;;;;;;4981577;28;20050;-60
2023/03/28 00:44:55;;;;;;;9.40;2.40;;;1.90;99.90;;;;;;4983387;28;20062;-60
2023/03/28 00:47:26;;;;;;;9.35;2.45;;;1.80;99.90;;;;;;4980515;28;20042;-60
2023/03/28 00:50:04;;;;;;;13.18;2.92;;;1.70;99.90;;;;;;4982930;28;20038;-60
2023/03/28 00:52:41;;;;;;;11.18;2.38;;;1.70;99.90;;;;;;4981190;28;20169;-60
2023/03/28 00:55:13;;;;;;;10.60;2.85;;;1.70;99.90;;;;;;4977522;28;20261;-59
2023/03/28 00:57:40;;;;;;;10.43;2.90;;;1.60;99.90;;;;;;4974922;28;20141;-60
2023/03/28 01:00:11;;;;;;;10.60;2.38;;;1.60;99.90;;;;;;4977441;28;20042;-60
2023/03/28 01:02:41;;;;;;;13.20;2.78;;;1.70;99.90;;;;;;4981886;28;20047;-60
2023/03/28 01:05:08;;;;;;;10.52;2.55;;;1.60;99.90;;;;;;4969458;28;20043;-60
2023/03/28 01:07:39;;;;;;;9.40;2.70;;;1.50;99.90;;;;;;4980113;28;20524;-60
2023/03/28 01:10:07;;;;;;;11.90;2.95;;;1.50;99.90;;;;;;4972656;28;20121;-60
2023/03/28 01:12:33;;;;;;;11.90;3.45;;;1.60;99.90;;;;;;4980740;28;20066;-60
2023/03/28 01:15:00;;;;;;;9.90;3.03;;;1.60;99.90;;;;;;4981547;28;20066;-60
2023/03/28 01:17:26;;;;;;;10.32;3.00;;;1.60;99.90;;;;;;4978235;28;20125;-60
2023/03/28 01:20:34;;;;;;;10.90;2.30;;;1.60;99.90;;;;;;4971703;28;20137;-60
2023/03/28 01:23:25;;;;;;;12.55;2.63;;;1.60;99.90;;;;;;4977829;28;20038;-60
2023/03/28 01:26:27;;;;;;;7.75;2.55;;;1.50;99.90;;;;;;4980922;28;21549;-59
2023/03/28 01:29:23;;;;;;;7.47;2.28;;;1.50;99.90;;;;;;4971019;28;20113;-59
2023/03/28 01:32:10;;;;;;;11.38;2.85;;;1.40;99.90;;;;;;4979167;28;20034;-60
2023/03/28 01:35:20;;;;;;;12.45;2.70;;;1.40;99.90;;;;;;4982371;28;20089;-60
2023/03/28 01:37:51;;;;;;;6.47;2.53;;;1.40;99.90;;;;;;4966347;28;20409;-60
2023/03/28 01:40:23;;;;;;;9.90;2.40;;;1.30;99.90;;;;;;4974024;28;20119;-59
2023/03/28 01:42:52;;;;;;;10.23;2.85;;;1.40;99.90;;;;;;4967860;28;20058;-59
2023/03/28 01:45:40;;;;;;;10.23;2.67;;;1.40;99.90;;;;;;4981268;28;20391;-60
2023/03/28 01:48:19;;;;;;;8.60;2.70;;;1.40;99.90;;;;;;4979210;28;20189;-59
2023/03/28 01:50:56;;;;;;;10.13;2.50;;;1.40;99.90;;;;;;4977929;28;20046;-59
2023/03/28 01:53:51;;;;;;;8.13;2.40;;;1.30;99.90;;;;;;4967573;28;20121;-60
2023/03/28 01:56:45;;;;;;;11.90;2.80;;;1.20;99.90;;;;;;4980471;28;20145;-60
2023/03/28 01:59:20;;;;;;;;;;;1.30;99.90;;;;;;4980287;28;20489;-60
2023/03/28 02:02:13;;;;;;;9.05;2.70;;;1.20;99.90;;;;;;4981010;28;19980;-60
2023/03/28 02:04:40;;;;;;;5.30;1.90;;;1.20;99.90;;;;;;4968358;28;20066;-60
2023/03/28 02:07:07;;;;;;;6.05;2.42;;;1.30;99.90;;;;;;4975770;28;20117;-60
2023/03/28 02:09:35;;;;;;;8.38;2.88;;;1.20;99.90;;;;;;4980636;28;20545;-59
2023/03/28 02:12:14;;;;;;;8.73;2.42;;;1.20;99.90;;;;;;4980387;28;20125;-60
2023/03/28 02:14:42;;;;;;;9.38;2.60;;;1.10;99.90;;;;;;4981476;28;20038;-60
2023/03/28 02:17:14;;;;;;;11.25;2.78;;;1.10;99.90;;;;;;4975613;28;20138;-59
2023/03/28 02:19:45;;;;;;;7.03;2.17;;;1.00;99.90;;;;;;4981287;28;20042;-60
2023/03/28 02:22:43;;;;;;;9.98;2.88;;;1.10;99.90;;;;;;4980149;28;20112;-60
2023/03/28 02:25:09;;;;;;;9.23;2.58;;;0.80;99.90;;;;;;4980393;28;20117;-59
2023/03/28 02:27:38;;;;;;;6.07;2.75;;;0.90;99.90;;;;;;4971130;28;20493;-59
2023/03/28 02:30:06;;;;;;;7.50;2.50;;;0.90;99.90;;;;;;4976869;28;20073;-59
2023/03/28 02:32:32;;;;;;;7.55;2.70;;;0.90;99.90;;;;;;4973032;28;20540;-60
2023/03/28 02:34:59;;;;;;;9.32;3.00;;;0.80;99.90;;;;;;4981173;28;20039;-59
2023/03/28 02:38:02;;;;;;;8.05;3.28;;;0.90;99.90;;;;;;4980490;28;20567;-59
2023/03/28 02:41:01;;;;;;;9.95;3.03;;;1.00;99.90;;;;;;4980617;28;20196;-59
2023/03/28 02:43:45;;;;;;;8.60;3.10;;;1.00;99.90;;;;;;4970101;28;20034;-59
2023/03/28 02:46:29;;;;;;;9.45;3.50;;;1.00;99.90;;;;;;4979867;28;20161;-59
2023/03/28 02:49:13;;;;;;;10.00;3.28;;;1.00;99.90;;;;;;4980073;28;20831;-59
2023/03/28 02:52:03;;;;;;;6.90;3.38;;;0.90;99.90;;;;;;4977847;28;20026;-59
2023/03/28 02:54:47;;;;;;;7.70;2.90;;;0.90;99.90;;;;;;4972554;28;20742;-60
2023/03/28 02:57:48;;;;;;;10.75;3.17;;;1.00;99.90;;;;;;4978280;28;20347;-59
2023/03/28 03:00:18;;;;;;;11.45;3.83;;;1.00;99.90;;;;;;4964649;28;20302;-59
2023/03/28 03:02:47;;;;;;;13.75;3.60;;;1.00;99.90;;;;;;4972737;28;20134;-59
2023/03/28 03:05:13;;;;;;;16.20;4.07;;;0.90;99.90;;;;;;4978636;28;20517;-59
2023/03/28 03:07:40;;;;;;;11.15;3.38;;;0.90;99.90;;;;;;4980612;28;20042;-59
2023/03/28 03:10:08;;;;;;;14.05;4.00;;;0.80;99.90;;;;;;4970231;28;20050;-59
2023/03/28 03:12:35;;;;;;;11.57;3.60;;;0.80;99.90;;;;;;4976970;28;20072;-59
2023/03/28 03:15:02;;;;;;;7.57;3.78;;;0.80;99.90;;;;;;4979898;28;20134;-59
2023/03/28 03:17:28;;;;;;;8.85;3.83;;;0.90;99.90;;;;;;4971031;28;20469;-59
2023/03/28 03:19:54;;;;;;;11.13;3.85;;;1.00;99.90;;;;;;4971953;28;20034;-59
2023/03/28 03:22:21;;;;;;;11.73;3.78;;;0.90;99.90;;;;;;4973615;28;20092;-59
2023/03/28 03:24:49;;;;;;;8.88;3.38;;;0.80;99.90;;;;;;4976393;28;20042;-59
2023/03/28 03:27:19;;;;;;;10.63;4.20;;;0.90;99.90;;;;;;4969150;28;20540;-59
2023/03/28 03:29:45;;;;;;;14.23;4.00;;;0.90;99.90;;;;;;4972741;28;20049;-59
2023/03/28 03:32:11;;;;;;;13.52;4.22;;;1.00;99.90;;;;;;4979319;28;20034;-59
2023/03/28 03:34:36;;;;;;;11.02;4.20;;;1.20;99.90;;;;;;4980534;28;20072;-60
2023/03/28 03:37:03;;;;;;;15.05;4.03;;;1.20;99.90;;;;;;4979326;28;20042;-58
2023/03/28 03:39:29;;;;;;;10.82;3.70;;;1.30;99.90;;;;;;4974409;28;20034;-59
2023/03/28 03:41:55;;;;;;;10.77;3.92;;;1.40;99.90;;;;;;4981531;28;20070;-59
2023/03/28 03:44:21;;;;;;;10.05;4.10;;;1.40;99.90;;;;;;4976279;28;20177;-59
2023/03/28 03:46:47;;;;;;;8.65;4.00;;;1.40;99.90;;;;;;4970668;28;20317;-59
2023/03/28 03:49:13;;;;;;;8.20;3.85;;;1.30;99.90;;;;;;4970998;28;20133;-59
2023/03/28 03:51:38;;;;;;;8.38;3.90;;;1.40;99.90;;;;;;4980082;28;20038;-59
2023/03/28 03:54:04;;;;;;;14.13;4.47;;;1.50;99.90;;;;;;4974047;28;20065;-59
2023/03/28 03:56:30;;;;;;;17.48;4.53;;;1.50;99.90;;;;;;4979698;28;20042;-59
2023/03/28 03:58:56;;;;;;;13.23;4.15;;;1.40;99.90;;;;;;4978058;28;20042;-59
2023/03/28 04:01:24;;;;;;;10.63;4.00;;;1.40;99.90;;;;;;4973030;28;20088;-59
2023/03/28 04:03:50;;;;;;;12.95;4.07;;;1.40;99.90;;;;;;4977550;28;20039;-59
2023/03/28 04:06:16;;;;;;;13.55;3.70;;;1.40;99.90;;;;;;4967546;28;20047;-59
2023/03/28 04:08:42;;;;;;;10.15;3.85;;;1.20;99.90;;;;;;4979613;28;20037;-59
2023/03/28 04:11:09;;;;;;;13.07;4.30;;;1.20;99.90;;;;;;4973460;28;20039;-59
2023/03/28 04:13:35;;;;;;;18.30;4.07;;;1.10;99.90;;;;;;4980266;28;20026;-59
2023/03/28 04:16:01;;;;;;;11.85;4.30;;;1.20;99.90;;;;;;4976560;28;20105;-59
2023/03/28 04:18:28;;;;;;;12.65;4.30;;;1.20;99.90;;;;;;4977220;28;20133;-59
2023/03/28 04:20:56;;;;;;;12.15;4.57;;;1.10;99.90;;;;;;4977701;28;20030;-59
2023/03/28 04:23:25;;;;;;;16.02;4.20;;;1.00;99.90;;;;;;4978228;28;20046;-60
2023/03/28 04:26:00;;;;;;;14.48;4.43;;;1.00;99.90;;;;;;4983188;28;20538;-59
2023/03/28 04:28:26;;;;;;;11.95;4.65;;;0.90;99.90;;;;;;4982292;28;20048;-59
2023/03/28 04:30:57;;;;;;;13.88;4.28;;;0.90;99.90;;;;;;4986816;28;20627;-59
2023/03/28 04:33:32;;;;;;;14.65;5.43;;;0.80;99.90;;;;;;4981677;28;20041;-59
2023/03/28 04:36:00;;;;;;;13.23;4.85;;;0.80;99.90;;;;;;4982866;28;20038;-59
2023/03/28 04:38:27;;;;;;;10.05;4.65;;;0.90;99.90;;;;;;4978890;28;20093;-59
2023/03/28 04:40:56;;;;;;;11.00;4.65;;;0.80;99.90;;;;;;4982506;28;20109;-59
2023/03/28 04:43:26;;;;;;;13.40;4.70;;;0.80;99.90;;;;;;4982050;28;20050;-59
2023/03/28 04:45:53;;;;;;;13.00;4.40;;;0.80;99.90;;;;;;4973535;28;20054;-60
2023/03/28 04:48:18;;;;;;;10.65;4.78;;;0.70;99.90;;;;;;4981668;28;20034;-59
2023/03/28 04:50:44;;;;;;;11.57;5.15;;;0.70;99.90;;;;;;4982203;28;20307;-59
2023/03/28 04:53:11;;;;;;;10.18;4.43;;;0.80;99.90;;;;;;4982521;28;20573;-58
2023/03/28 04:55:37;;;;;;;15.23;4.63;;;0.70;99.90;;;;;;4979844;28;20046;-59
2023/03/28 04:58:03;;;;;;;18.70;5.57;;;0.70;99.90;;;;;;4981056;28;20455;-58
2023/03/28 05:00:29;;;;;;;12.95;5.18;;;0.70;99.90;;;;;;4982342;28;20247;-59
2023/03/28 05:02:56;;;;;;;8.55;4.40;;;0.70;99.90;;;;;;4978736;28;20074;-59
2023/03/28 05:05:21;;;;;;;10.82;5.00;;;0.60;99.90;;;;;;4975747;28;20049;-59
2023/03/28 05:07:47;;;;;;;11.50;5.50;;;0.70;99.90;;;;;;4982437;28;20043;-59
2023/03/28 05:10:13;;;;;;;10.75;5.30;;;0.70;99.90;;;;;;4981402;28;20342;-59
2023/03/28 05:12:38;;;;;;;14.07;6.75;;;0.70;99.90;;;;;;4981798;28;20133;-59
2023/03/28 05:15:05;;;;;;;11.57;6.20;;;0.90;99.90;;;;;;4975554;28;20099;-58
2023/03/28 05:17:31;;;;;;;18.52;6.47;;;1.00;99.90;;;;;;4983913;28;20046;-59
2023/03/28 05:19:57;;;;;;;13.77;6.28;;;1.00;99.90;;;;;;4982397;28;20120;-59
2023/03/28 05:22:22;;;;;;;14.40;6.63;;;0.90;99.90;;;;;;4980084;28;20052;-59
2023/03/28 05:24:48;;;;;;;15.98;6.28;;;0.90;99.90;;;;;;4980680;28;20066;-59
2023/03/28 05:27:13;;;;;;;16.35;6.80;;;0.90;99.90;;;;;;4975214;28;20351;-59
2023/03/28 05:29:39;;;;;;;15.50;6.38;;;0.90;99.90;;;;;;4974483;28;20045;-59
2023/03/28 05:32:05;;;;;;;15.32;7.18;;;1.00;99.90;;;;;;4978547;28;20046;-58
2023/03/28 05:34:33;;;;;;;13.57;6.35;;;1.10;99.90;;;;;;4975652;28;20041;-59
2023/03/28 05:36:58;;;;;;;12.07;6.05;;;1.10;99.90;;;;;;4975328;28;20465;-59
2023/03/28 05:39:24;;;;;;;12.20;6.22;;;1.10;99.90;;;;;;4974455;28;20034;-59
2023/03/28 05:41:50;;;;;;;15.13;6.40;;;1.10;99.90;;;;;;4980448;28;20461;-59
2023/03/28 05:44:15;;;;;;;11.73;6.10;;;1.10;99.90;;;;;;4979151;28;20365;-59
2023/03/28 05:46:41;;;;;;;17.83;6.97;;;1.20;99.90;;;;;;4980821;28;20031;-59
2023/03/28 05:49:07;;;;;;;14.30;7.25;;;1.10;99.90;;;;;;4980344;28;20087;-58
2023/03/28 05:51:32;;;;;;;14.68;6.63;;;1.10;99.90;;;;;;4980069;28;20513;-59
2023/03/28 05:53:58;;;;;;;14.82;6.78;;;1.20;99.90;;;;;;4981048;28;20038;-59
2023/03/28 05:56:23;;;;;;;19.77;6.82;;;1.30;99.90;;;;;;4980561;28;20072;-59
2023/03/28 05:58:49;;;;;;;14.52;7.15;;;1.50;99.90;;;;;;4981379;28;20129;-59
2023/03/28 06:01:17;;;;;;;15.40;7.03;;;1.40;99.90;;;;;;4979694;28;20045;-59
2023/03/28 06:03:46;;;;;;;20.02;6.68;;;1.70;99.90;;;;;;4981079;28;20050;-59
2023/03/28 06:06:12;;;;;;;14.07;7.45;;;1.60;99.90;;;;;;4980255;28;20113;-59
2023/03/28 06:08:37;;;;;;;14.18;7.20;;;1.50;99.90;;;;;;4980584;28;20114;-59
2023/03/28 06:11:03;;;;;;;18.58;8.02;;;1.60;99.90;;;;;;4980412;28;20045;-60
2023/03/28 06:13:29;;;;;;;18.13;7.20;;;1.80;99.90;;;;;;4980155;28;20052;-60
2023/03/28 06:15:55;;;;;;;17.73;7.82;;;2.00;99.90;;;;;;4979025;28;20184;-60
2023/03/28 06:18:20;;;;;;;19.17;7.55;;;2.20;99.90;;;;;;4980821;28;20046;-60
2023/03/28 06:20:46;;;;;;;18.98;7.45;;;2.30;99.90;;;;;;4980350;28;20034;-60
2023/03/28 06:23:11;;;;;;;20.20;7.93;;;2.30;99.90;;;;;;4979690;28;20042;-59
2023/03/28 06:25:37;;;;;;;13.43;7.53;;;2.40;99.90;;;;;;4980628;28;20042;-60
2023/03/28 06:28:03;;;;;;;15.98;7.50;;;2.30;99.90;;;;;;4979340;28;20058;-60
2023/03/28 06:30:28;;;;;;;15.82;7.55;;;2.40;99.90;;;;;;4980502;28;20121;-60
2023/03/28 06:32:54;;;;;;;15.95;7.72;;;2.40;99.90;;;;;;4980410;28;20034;-60
2023/03/28 06:35:20;;;;;;;13.93;7.65;;;2.60;99.90;;;;;;4979644;28;20125;-60
2023/03/28 06:37:45;;;;;;;15.32;7.40;;;2.70;99.90;;;;;;4980714;28;20031;-61
2023/03/28 06:40:11;;;;;;;18.52;7.40;;;2.80;99.90;;;;;;4979904;28;20129;-61
2023/03/28 06:42:36;;;;;;;18.65;7.63;;;3.00;99.90;;;;;;4979474;28;20065;-61
2023/03/28 06:45:02;;;;;;;17.02;7.25;;;2.80;99.90;;;;;;4978227;28;20118;-61
2023/03/28 06:47:29;;;;;;;20.13;7.70;;;2.90;99.90;;;;;;4979941;28;20482;-60
2023/03/28 06:49:54;;;;;;;17.25;7.20;;;3.00;99.90;;;;;;4978902;28;20138;-60
2023/03/28 06:52:22;;;;;;;16.75;6.97;;;3.10;99.90;;;;;;4979779;28;20046;-60
2023/03/28 06:54:47;;;;;;;15.23;6.90;;;3.10;99.90;;;;;;4980365;28;20129;-61
2023/03/28 06:57:13;;;;;;;19.30;7.07;;;3.00;99.90;;;;;;4979278;28;20574;-61
2023/03/28 06:59:39;;;;;;;17.40;7.93;;;2.90;99.90;;;;;;4980400;28;20038;-60
2023/03/28 07:02:04;;;;;;;17.27;7.07;;;2.80;99.90;;;;;;4979886;28;20410;-60
2023/03/28 07:04:31;;;;;;;16.23;6.75;;;2.80;99.90;;;;;;4979864;28;20811;-60
2023/03/28 07:06:57;;;;;;;17.77;6.97;;;2.90;99.90;;;;;;4979328;28;20413;-61
2023/03/28 07:09:22;;;;;;;16.27;7.20;;;2.90;99.90;;;;;;4979454;28;20034;-61
2023/03/28 07:11:48;;;;;;;15.35;6.90;;;3.00;99.90;;;;;;4979074;28;20037;-61
2023/03/28 07:14:13;;;;;;;14.00;6.70;;;3.00;99.90;;;;;;4979914;28;20249;-62
2023/03/28 07:16:39;;;;;;;18.17;6.88;;;3.20;99.90;;;;;;4979489;28;20042;-60
2023/03/28 07:19:05;;;;;;;18.35;6.80;;;3.40;99.90;;;;;;4978880;28;20478;-60
2023/03/28 07:21:30;;;;;;;15.82;7.05;;;3.50;99.90;;;;;;4978200;28;20255;-60
2023/03/28 07:23:56;;;;;;;21.70;7.00;;;3.60;99.90;;;;;;4979949;28;20027;-59
2023/03/28 07:26:21;;;;;;;11.88;6.20;;;3.70;99.90;;;;;;4978808;28;20038;-60
2023/03/28 07:28:48;;;;;;;11.15;6.10;;;3.70;99.90;;;;;;4978910;28;20038;-60
2023/03/28 07:31:14;;;;;;;17.75;6.60;;;3.90;99.90;;;;;;4978985;28;20027;-60
2023/03/28 07:33:40;;;;;;;18.13;6.28;;;4.10;99.90;;;;;;4979496;28;20442;-60
2023/03/28 07:36:12;;;;;;;14.05;6.53;;;4.20;99.90;;;;;;4979265;28;20069;-60
2023/03/28 07:38:37;;;;;;;22.95;7.75;;;4.20;99.90;;;;;;4979952;28;20425;-59
2023/03/28 07:41:04;;;;;;;17.13;6.35;;;4.40;99.90;;;;;;4977774;28;20071;-59
2023/03/28 07:43:29;;;;;;;14.40;5.93;;;4.50;99.90;;;;;;4980023;28;20474;-59
2023/03/28 07:46:05;;;;;;;19.42;6.88;;;4.60;91.50;;;;;;4979588;28;20360;-59
2023/03/28 07:48:31;;;;;;;18.10;6.15;;;4.60;61.70;;;;;;4979377;28;20126;-60
2023/03/28 07:50:58;;;;;;;14.93;6.47;;;4.50;39.90;;;;;;4978813;28;20039;-59
2023/03/28 07:53:24;;;;;;;12.90;5.60;;;4.80;76.10;;;;;;4979009;28;20104;-59
2023/03/28 07:55:50;;;;;;;16.90;6.05;;;5.00;18.90;;;;;;4980092;28;20046;-59
2023/03/28 07:58:16;;;;;;;12.55;5.40;;;5.00;9.70;;;;;;4982932;28;20041;-60
2023/03/28 08:00:44;;;;;;;13.98;5.85;;;5.00;24.20;;;;;;4983266;28;20042;-59
2023/03/28 08:03:10;;;;;;;12.70;5.40;;;5.20;37.60;;;;;;4982003;28;20053;-60
2023/03/28 08:05:36;;;;;;;18.67;5.95;;;5.40;66.00;;;;;;4983602;28;20479;-60
2023/03/28 08:08:02;;;;;;;11.55;5.00;;;5.40;1.00;;;;;;4982543;28;20116;-59
2023/03/28 08:10:28;;;;;;;12.07;5.13;;;5.50;1.00;;;;;;4983354;28;20638;-60
2023/03/28 08:12:54;;;;;;;14.70;5.68;;;5.60;1.00;;;;;;4982413;28;20094;-60
2023/03/28 08:15:19;;;;;;;15.52;5.03;;;5.70;1.00;;;;;;4982681;28;20034;-60
2023/03/28 08:17:45;;;;;;;13.88;4.90;;;5.70;1.00;;;;;;4983215;28;20636;-60
2023/03/28 08:20:11;;;;;;;13.30;4.95;;;5.90;1.00;;;;;;4982896;28;20416;-60
2023/03/28 08:22:36;;;;;;;12.73;4.80;;;5.80;1.00;;;;;;4982784;28;20042;-60
2023/03/28 08:25:03;;;;;;;9.55;4.57;;;5.80;1.00;;;;;;4981830;28;20038;-58
2023/03/28 08:27:28;;;;;;;13.35;5.28;;;5.80;1.00;;;;;;4982079;28;20038;-60
2023/03/28 08:29:54;;;;;;;16.73;4.93;;;5.90;1.00;;;;;;4980671;28;20030;-60
2023/03/28 08:32:20;;;;;;;9.40;3.88;;;5.90;1.00;;;;;;4982429;28;20042;-60
2023/03/28 08:34:45;;;;;;;14.27;4.53;;;6.00;1.00;;;;;;4982625;28;20038;-60
2023/03/28 08:37:11;;;;;;;11.65;4.13;;;6.20;1.00;;;;;;4982598;28;20037;-60
2023/03/28 08:39:39;;;;;;;11.45;3.95;;;6.40;1.00;;;;;;4982617;28;20030;-60
2023/03/28 08:42:14;;;;;;;11.85;4.00;;;6.30;1.00;;;;;;4982362;28;20045;-60
2023/03/28 08:44:55;;;;;;;13.35;3.67;;;6.30;1.00;;;;;;4982897;28;20038;-60
2023/03/28 08:47:23;;;;;;;11.10;3.63;;;6.40;1.00;;;;;;4981212;28;20037;-60
2023/03/28 08:49:57;;;;;;;12.05;4.10;;;6.50;1.00;;;;;;4983002;28;20093;-60
2023/03/28 08:52:23;;;;;;;11.00;4.05;;;6.60;1.00;;;;;;4982281;28;20046;-61
2023/03/28 08:55:01;;;;;;;10.65;3.75;;;6.70;1.00;;;;;;4982506;28;20727;-61
2023/03/28 08:57:30;;;;;;;7.57;2.95;;;6.90;1.00;;;;;;4972690;28;20339;-60
2023/03/28 09:00:07;;;;;;;9.95;3.00;;;7.00;1.00;;;;;;4971741;28;20564;-60
2023/03/28 09:02:34;;;;;;;7.95;2.50;;;7.20;1.00;;;;;;4976425;28;20046;-61
2023/03/28 09:04:59;;;;;;;11.57;2.47;;;7.10;99.90;;;;;;4982338;28;20524;-60
2023/03/28 09:07:35;;;;;;;10.40;2.30;;;7.00;1.00;;;;;;4980462;28;20078;-60
2023/03/28 09:10:42;;;;;;;6.95;2.58;;;7.20;99.90;;;;;;4982215;28;20039;-60
2023/03/28 09:13:18;;;;;;;10.10;2.00;;;7.30;1.00;;;;;;4921075;29;20047;-60
2023/03/28 09:16:21;;;;;;;6.53;2.03;;;7.40;1.00;;;;;;4972450;28;20046;-60
2023/03/28 09:18:56;;;;;;;7.65;2.00;;;7.20;1.00;;;;;;4977815;28;20058;-60
2023/03/28 09:21:40;;;;;;;8.27;1.73;;;7.30;1.00;;;;;;4981902;28;20106;-60
2023/03/28 09:24:16;;;;;;;7.13;1.50;;;7.30;1.00;;;;;;4982266;28;20049;-61
2023/03/28 09:27:10;;;;;;;7.00;1.50;;;7.40;99.90;;;;;;4982582;28;20144;-61
2023/03/28 09:29:39;;;;;;;5.55;1.55;;;7.50;99.90;;;;;;4971433;28;20098;-61
2023/03/28 09:32:18;;;;;;;7.50;1.67;;;7.60;1.00;;;;;;4981203;28;20561;-61
2023/03/28 09:34:48;;;;;;;9.95;2.33;;;7.80;1.00;;;;;;4982047;28;20041;-61
2023/03/28 09:37:30;;;;;;;13.45;2.28;;;7.60;99.90;;;;;;4981216;28;20034;-60
2023/03/28 09:40:05;;;;;;;4.63;1.25;;;7.50;99.90;;;;;;4981739;28;20034;-60
2023/03/28 09:42:50;;;;;;;8.02;1.60;;;7.50;1.00;;;;;;4978844;28;20041;-61
2023/03/28 09:45:29;;;;;;;7.20;1.20;;;7.70;1.00;;;;;;4980802;28;20034;-61
2023/03/28 09:47:55;;;;;;;11.45;1.85;;;7.90;1.00;;;;;;4975583;28;20056;-61
2023/03/28 09:50:21;;;;;;;8.85;1.65;;;8.00;1.00;;;;;;4981302;28;20038;-61
2023/03/28 09:52:49;;;;;;;7.45;1.63;;;8.00;1.00;;;;;;4981084;28;20635;-61
2023/03/28 09:55:20;;;;;;;4.85;1.25;;;8.00;99.90;;;;;;4980572;28;20050;-61
2023/03/28 09:58:11;;;;;;;6.70;1.48;;;8.00;1.00;;;;;;4980993;28;20131;-60
2023/03/28 10:00:47;;;;;;;5.70;1.52;;;7.80;99.90;;;;;;4980961;28;20348;-61
2023/03/28 10:03:31;;;;;;;4.97;1.45;;;7.90;1.00;;;;;;4979540;28;20557;-61
2023/03/28 10:05:59;;;;;;;9.50;1.70;;;7.70;1.00;;;;;;4981014;28;20414;-61
2023/03/28 10:08:32;;;;;;;6.43;1.45;;;7.70;1.00;;;;;;4981074;28;20471;-61
2023/03/28 10:11:01;;;;;;;7.72;1.55;;;7.80;99.90;;;;;;4981295;28;20078;-61
2023/03/28 10:13:34;;;;;;;6.97;1.65;;;8.00;99.90;;;;;;4976580;28;20046;-61
2023/03/28 10:16:01;;;;;;;6.78;1.60;;;8.10;99.90;;;;;;4980748;28;20458;-61
2023/03/28 10:18:29;;;;;;;4.05;1.67;;;8.10;1.00;;;;;;4980034;28;20049;-61
2023/03/28 10:20:55;;;;;;;6.90;1.63;;;8.00;1.00;;;;;;4980064;28;20042;-61
2023/03/28 10:23:23;;;;;;;7.07;1.45;;;8.20;1.00;;;;;;4980495;28;20105;-61
2023/03/28 10:25:51;;;;;;;8.73;1.70;;;8.30;1.00;;;;;;4980101;28;20034;-60
2023/03/28 10:28:30;;;;;;;8.60;2.20;;;8.40;1.00;;;;;;4979612;28;20407;-61
2023/03/28 10:31:00;;;;;;;5.03;1.33;;;8.50;99.90;;;;;;4980250;28;20110;-61
2023/03/28 10:33:32;;;;;;;6.05;1.30;;;8.60;99.90;;;;;;4979668;28;20676;-61
2023/03/28 10:36:06;;;;;;;6.43;1.55;;;8.60;99.90;;;;;;4979229;28;20461;-61
2023/03/28 10:38:50;;;;;;;6.38;1.55;;;8.60;93.90;;;;;;4980375;28;20516;-61
2023/03/28 10:41:25;;;;;;;2.45;1.00;;;8.40;35.20;;;;;;4978429;28;20038;-61
2023/03/28 10:43:51;;;;;;;5.28;1.23;;;8.40;99.90;;;;;;4980641;28;20117;-60
2023/03/28 10:46:20;;;;;;;7.55;1.50;;;8.50;1.00;;;;;;4978902;28;20041;-61
2023/03/28 10:49:13;;;;;;;4.93;1.33;;;8.60;99.90;;;;;;4980669;28;20041;-61
2023/03/28 10:51:41;;;;;;;3.90;1.17;;;8.70;1.00;;;;;;4980476;28;20119;-61
2023/03/28 10:54:13;;;;;;;4.53;1.15;;;8.90;99.90;;;;;;4978503;28;20035;-59
2023/03/28 10:56:49;;;;;;;5.65;1.48;;;8.90;1.00;;;;;;4975370;28;20513;-61
2023/03/28 10:59:36;;;;;;;6.40;1.30;;;9.00;1.00;;;;;;4978919;28;20105;-61
2023/03/28 11:02:20;;;;;;;7.18;1.45;;;9.20;1.00;;;;;;4979592;28;20216;-61
2023/03/28 11:05:10;;;;;;;4.80;1.35;;;9.10;1.00;;;;;;4980536;28;20069;-61
2023/03/28 11:07:39;;;;;;;8.70;1.40;;;8.80;1.00;;;;;;4979381;28;20585;-61
2023/03/28 11:10:21;;;;;;;3.35;1.20;;;8.90;1.00;;;;;;4979022;28;20046;-61
2023/03/28 11:12:50;;;;;;;4.88;1.50;;;8.90;99.90;;;;;;4980102;28;20030;-60
2023/03/28 11:15:40;;;;;;;3.33;1.20;;;8.80;1.00;;;;;;4979632;28;20026;-61
2023/03/28 11:18:27;;;;;;;6.40;1.30;;;8.80;1.00;;;;;;4979255;28;20034;-61
2023/03/28 11:21:07;;;;;;;4.97;1.38;;;8.80;1.00;;;;;;4979369;28;20062;-60
2023/03/28 11:23:55;;;;;;;2.83;1.50;;;8.90;1.00;;;;;;4979913;28;20525;-61
2023/03/28 11:26:50;;;;;;;6.57;1.50;;;8.90;1.00;;;;;;4979378;28;20038;-61
2023/03/28 11:29:34;;;;;;;4.10;1.55;;;8.70;1.00;;;;;;4979543;28;20469;-60
2023/03/28 11:32:18;;;;;;;3.58;1.20;;;8.70;1.00;;;;;;4978611;28;20116;-61
2023/03/28 11:34:50;;;;;;;7.82;1.48;;;8.70;1.00;;;;;;4980225;28;20030;-61
2023/03/28 11:37:29;;;;;;;5.53;1.30;;;8.70;1.00;;;;;;4978985;28;20086;-61
2023/03/28 11:40:27;;;;;;;6.95;1.48;;;8.90;1.00;;;;;;4978185;28;20033;-61
2023/03/28 11:42:59;;;;;;;5.28;1.40;;;9.10;1.00;;;;;;4977521;28;20084;-62
2023/03/28 11:45:37;;;;;;;8.82;1.20;;;9.00;1.00;;;;;;4979450;28;20060;-61
2023/03/28 11:48:07;;;;;;;6.30;1.92;;;8.90;1.00;;;;;;4979171;28;20034;-61
2023/03/28 11:50:44;;;;;;;4.85;1.50;;;9.10;1.00;;;;;;4978600;28;20101;-61
2023/03/28 11:53:59;;;;;;;5.40;1.38;;;9.20;1.00;;;;;;4978517;28;20597;-60
2023/03/28 11:56:55;;;;;;;7.35;1.67;;;9.10;99.90;;;;;;4948303;28;20038;-61
2023/03/28 11:59:23;;;;;;;9.20;1.70;;;9.10;99.90;;;;;;4979217;28;20274;-61
2023/03/28 12:01:57;;;;;;;4.70;1.63;;;9.30;99.90;;;;;;4979039;28;20043;-61
2023/03/28 12:04:48;;;;;;;7.38;1.80;;;9.30;1.00;;;;;;4978555;28;20108;-61
2023/03/28 12:08:09;;;;;;;9.38;1.50;;;9.50;99.90;;;;;;4978886;28;20464;-61
2023/03/28 12:10:36;;;;;;;6.10;1.42;;;9.40;1.00;;;;;;4945430;28;20044;-61
2023/03/28 12:13:20;;;;;;;6.18;1.50;;;9.50;1.00;;;;;;4979391;28;20057;-58
2023/03/28 12:15:54;;;;;;;4.60;1.33;;;9.60;1.00;;;;;;4978580;28;20030;-61
2023/03/28 12:18:45;;;;;;;5.10;1.40;;;9.50;99.90;;;;;;4978474;28;20035;-61
2023/03/28 12:21:32;;;;;;;5.97;1.52;;;9.40;99.90;;;;;;4978561;28;20133;-61
2023/03/28 12:24:01;;;;;;;4.30;1.75;;;9.40;99.90;;;;;;4979106;28;20133;-62
2023/03/28 12:26:58;;;;;;;4.88;1.42;;;9.50;99.90;;;;;;4977096;28;20108;-60
2023/03/28 12:29:33;;;;;;;6.22;1.50;;;9.70;99.90;;;;;;4973372;28;20080;-60
2023/03/28 12:32:31;;;;;;;3.47;1.48;;;10.00;99.90;;;;;;4978785;28;20329;-60
2023/03/28 12:34:56;;;;;;;5.35;1.52;;;10.10;99.90;;;;;;4978847;28;20503;-60
2023/03/28 12:37:36;;;;;;;4.85;1.50;;;10.10;99.90;;;;;;4978128;28;20054;-60
2023/03/28 12:40:18;;;;;;;4.95;1.75;;;10.10;99.90;;;;;;4978488;28;20129;-59
2023/03/28 12:42:46;;;;;;;5.28;1.80;;;10.00;99.90;;;;;;4977329;28;20090;-61
2023/03/28 12:45:30;;;;;;;3.92;1.35;;;10.10;99.90;;;;;;4981848;28;20485;-60
2023/03/28 12:48:03;;;;;;;5.50;1.48;;;10.10;99.90;;;;;;4981809;28;20043;-61
2023/03/28 12:50:48;;;;;;;3.63;1.03;;;10.10;1.00;;;;;;4982107;28;20034;-61
2023/03/28 12:53:14;;;;;;;7.72;2.25;;;10.10;88.20;;;;;;4979677;28;20413;-61
2023/03/28 12:55:45;;;;;;;5.70;1.45;;;10.20;99.90;;;;;;4980122;28;20381;-61
2023/03/28 12:58:33;;;;;;;5.38;1.40;;;10.10;15.10;;;;;;4980258;28;20092;-61
2023/03/28 13:01:08;;;;;;;12.48;2.05;;;9.90;1.00;;;;;;4981026;28;20155;-61
2023/03/28 13:03:45;;;;;;;4.72;1.40;;;9.80;1.00;;;;;;4981589;28;20038;-61
2023/03/28 13:06:37;;;;;;;4.53;1.48;;;9.70;1.00;;;;;;4981423;28;20457;-61
2023/03/28 13:09:25;;;;;;;4.35;1.40;;;9.60;1.00;;;;;;4981687;28;20039;-60
2023/03/28 13:12:46;;;;;;;4.07;1.38;;;9.80;1.00;;;;;;4982236;28;20494;-61
2023/03/28 13:15:12;;;;;;;4.72;1.42;;;9.60;1.00;;;;;;4961541;28;20035;-61
2023/03/28 13:17:44;;;;;;;5.93;1.70;;;9.80;1.00;;;;;;4981623;28;20185;-61
2023/03/28 13:20:13;;;;;;;5.50;1.73;;;9.80;1.00;;;;;;4981780;28;20529;-60